sensor_id;sensor_type;location;lat;lon;timestamp;pressure;altitude;pressure_sealevel;temperature;humidity
5753;BME280;2901;42.140;24.760;2023-02-28T00:02:13;99977.28;;;10.80;100.00
5753;BME280;2901;42.140;24.760;2023-02-28T00:04:38;99984.19;;;10.81;100.00
5753;BME280;2901;42.140;24.760;2023-02-28T00:07:03;99986.78;;;10.85;100.00
5753;BME280;2901;42.140;24.760;2023-02-28T00:09:29;99983.34;;;10.86;100.00
5753;BME280;2901;42.140;24.760;2023-02-28T00:11:54;99988.53;;;10.86;100.00
5753;BME280;2901;42.140;24.760;2023-02-28T00:14:19;99990.25;;;10.92;100.00
5753;BME280;2901;42.140;24.760;2023-02-28T00:16:45;99990.22;;;10.97;100.00
5753;BME280;2901;42.140;24.760;2023-02-28T00:19:10;99997.16;;;10.93;99.89
5753;BME280;2901;42.140;24.760;2023-02-28T00:21:38;99992.81;;;10.93;99.93
5753;BME280;2901;42.140;24.760;2023-02-28T00:24:06;99991.97;;;10.88;100.00
5753;BME280;2901;42.140;24.760;2023-02-28T00:26:31;99981.59;;;10.90;100.00
5753;BME280;2901;42.140;24.760;2023-02-28T00:28:57;99993.69;;;10.92;100.00
5753;BME280;2901;42.140;24.760;2023-02-28T00:31:22;99984.22;;;10.93;100.00
5753;BME280;2901;42.140;24.760;2023-02-28T00:33:48;99982.47;;;10.95;100.00
5753;BME280;2901;42.140;24.760;2023-02-28T00:36:13;99968.66;;;10.88;100.00
5753;BME280;2901;42.140;24.760;2023-02-28T00:38:39;99966.03;;;10.98;100.00
5753;BME280;2901;42.140;24.760;2023-02-28T00:41:06;99965.19;;;10.97;100.00
5753;BME280;2901;42.140;24.760;2023-02-28T00:43:37;99953.97;;;10.92;99.93
5753;BME280;2901;42.140;24.760;2023-02-28T00:46:03;99976.41;;;10.90;100.00
5753;BME280;2901;42.140;24.760;2023-02-28T00:48:29;99979.00;;;10.88;100.00
5753;BME280;2901;42.140;24.760;2023-02-28T00:50:54;99975.56;;;10.85;100.00
5753;BME280;2901;42.140;24.760;2023-02-28T00:53:20;99982.47;;;10.89;100.00
5753;BME280;2901;42.140;24.760;2023-02-28T00:55:47;99964.31;;;10.93;100.00
5753;BME280;2901;42.140;24.760;2023-02-28T00:58:12;99980.72;;;10.94;100.00
5753;BME280;2901;42.140;24.760;2023-02-28T01:00:38;99971.22;;;10.98;100.00
5753;BME280;2901;42.140;24.760;2023-02-28T01:03:03;99984.19;;;11.08;100.00
5753;BME280;2901;42.140;24.760;2023-02-28T01:05:28;99985.06;;;11.16;99.94
5753;BME280;2901;42.140;24.760;2023-02-28T01:07:54;99994.53;;;11.20;99.15
5753;BME280;2901;42.140;24.760;2023-02-28T01:10:19;100009.22;;;11.20;99.41
5753;BME280;2901;42.140;24.760;2023-02-28T01:12:45;99992.84;;;11.16;99.77
5753;BME280;2901;42.140;24.760;2023-02-28T01:15:11;100004.03;;;11.17;99.37
5753;BME280;2901;42.140;24.760;2023-02-28T01:17:36;100004.91;;;11.20;99.23
5753;BME280;2901;42.140;24.760;2023-02-28T01:20:03;100001.44;;;11.27;98.96
5753;BME280;2901;42.140;24.760;2023-02-28T01:22:28;100014.41;;;11.38;97.66
5753;BME280;2901;42.140;24.760;2023-02-28T01:24:53;100011.81;;;11.38;97.70
5753;BME280;2901;42.140;24.760;2023-02-28T01:27:19;100016.13;;;11.40;97.42
5753;BME280;2901;42.140;24.760;2023-02-28T01:29:45;100011.78;;;11.39;97.30
5753;BME280;2901;42.140;24.760;2023-02-28T01:32:10;100014.38;;;11.47;97.08
5753;BME280;2901;42.140;24.760;2023-02-28T01:34:35;100007.47;;;11.52;96.85
5753;BME280;2901;42.140;24.760;2023-02-28T01:37:01;100002.25;;;11.57;95.93
5753;BME280;2901;42.140;24.760;2023-02-28T01:39:26;100020.38;;;11.63;95.36
5753;BME280;2901;42.140;24.760;2023-02-28T01:41:52;100030.75;;;11.63;96.16
5753;BME280;2901;42.140;24.760;2023-02-28T01:47:20;100031.63;;;11.65;95.24
5753;BME280;2901;42.140;24.760;2023-02-28T01:49:47;100039.41;;;11.65;95.52
5753;BME280;2901;42.140;24.760;2023-02-28T01:52:14;100039.41;;;11.66;95.89
5753;BME280;2901;42.140;24.760;2023-02-28T01:54:45;100045.47;;;11.73;95.79
5753;BME280;2901;42.140;24.760;2023-02-28T01:57:16;100051.53;;;11.69;95.45
5753;BME280;2901;42.140;24.760;2023-02-28T02:00:04;100053.25;;;11.68;95.80
5753;BME280;2901;42.140;24.760;2023-02-28T02:02:32;100054.97;;;11.68;95.67
5753;BME280;2901;42.140;24.760;2023-02-28T02:07:35;100066.19;;;11.70;95.04
5753;BME280;2901;42.140;24.760;2023-02-28T02:13:17;100073.13;;;11.87;94.50
5753;BME280;2901;42.140;24.760;2023-02-28T02:24:29;100074.00;;;11.67;92.28
5753;BME280;2901;42.140;24.760;2023-02-28T02:34:51;100087.00;;;11.30;94.96
5753;BME280;2901;42.140;24.760;2023-02-28T02:37:39;100084.41;;;11.15;95.42
5753;BME280;2901;42.140;24.760;2023-02-28T02:45:30;100088.69;;;10.90;98.16
5753;BME280;2901;42.140;24.760;2023-02-28T02:48:02;100093.88;;;10.86;98.39
5753;BME280;2901;42.140;24.760;2023-02-28T02:50:34;100094.69;;;10.80;99.09
5753;BME280;2901;42.140;24.760;2023-02-28T02:53:02;100099.88;;;10.74;100.00
5753;BME280;2901;42.140;24.760;2023-02-28T02:55:30;100105.94;;;10.72;100.00
5753;BME280;2901;42.140;24.760;2023-02-28T02:58:01;100105.03;;;10.65;100.00
5753;BME280;2901;42.140;24.760;2023-02-28T03:00:32;100116.25;;;10.64;100.00
5753;BME280;2901;42.140;24.760;2023-02-28T03:03:01;100123.16;;;10.59;100.00
5753;BME280;2901;42.140;24.760;2023-02-28T03:05:31;100123.16;;;10.59;100.00
5753;BME280;2901;42.140;24.760;2023-02-28T03:07:59;100124.00;;;10.58;100.00
5753;BME280;2901;42.140;24.760;2023-02-28T03:18:22;100137.84;;;10.65;100.00
5753;BME280;2901;42.140;24.760;2023-02-28T03:21:01;100138.75;;;10.70;100.00
5753;BME280;2901;42.140;24.760;2023-02-28T03:23:38;100139.59;;;10.72;100.00
5753;BME280;2901;42.140;24.760;2023-02-28T03:26:20;100145.66;;;10.75;100.00
5753;BME280;2901;42.140;24.760;2023-02-28T03:31:58;100155.16;;;10.78;100.00
5753;BME280;2901;42.140;24.760;2023-02-28T03:34:30;100145.63;;;10.71;100.00
5753;BME280;2901;42.140;24.760;2023-02-28T03:37:02;100146.50;;;10.70;100.00
5753;BME280;2901;42.140;24.760;2023-02-28T03:39:43;100149.09;;;10.67;100.00
5753;BME280;2901;42.140;24.760;2023-02-28T03:42:15;100144.75;;;10.60;100.00
5753;BME280;2901;42.140;24.760;2023-02-28T03:44:53;100143.88;;;10.56;100.00
5753;BME280;2901;42.140;24.760;2023-02-28T03:47:27;100149.91;;;10.58;100.00
5753;BME280;2901;42.140;24.760;2023-02-28T03:50:04;100149.03;;;10.58;100.00
5753;BME280;2901;42.140;24.760;2023-02-28T03:52:34;100144.66;;;10.48;100.00
5753;BME280;2901;42.140;24.760;2023-02-28T03:55:05;100160.28;;;10.61;100.00
5753;BME280;2901;42.140;24.760;2023-02-28T04:00:06;100165.50;;;10.72;100.00
5753;BME280;2901;42.140;24.760;2023-02-28T04:02:35;100172.41;;;10.74;100.00
5753;BME280;2901;42.140;24.760;2023-02-28T04:05:00;100168.94;;;10.69;100.00
5753;BME280;2901;42.140;24.760;2023-02-28T04:07:29;100177.56;;;10.68;100.00
5753;BME280;2901;42.140;24.760;2023-02-28T04:09:54;100186.19;;;10.67;100.00
5753;BME280;2901;42.140;24.760;2023-02-28T04:12:20;100187.94;;;10.70;100.00
5753;BME280;2901;42.140;24.760;2023-02-28T04:14:48;100191.41;;;10.78;100.00
5753;BME280;2901;42.140;24.760;2023-02-28T04:17:13;100189.69;;;10.77;100.00
5753;BME280;2901;42.140;24.760;2023-02-28T04:19:39;100197.44;;;10.74;100.00
5753;BME280;2901;42.140;24.760;2023-02-28T04:22:04;100192.31;;;10.80;100.00
5753;BME280;2901;42.140;24.760;2023-02-28T04:24:30;100194.84;;;10.74;100.00
5753;BME280;2901;42.140;24.760;2023-02-28T04:26:57;100203.53;;;10.82;100.00
5753;BME280;2901;42.140;24.760;2023-02-28T04:29:31;100197.44;;;10.71;100.00
5753;BME280;2901;42.140;24.760;2023-02-28T04:32:00;100194.88;;;10.75;100.00
5753;BME280;2901;42.140;24.760;2023-02-28T04:34:28;100200.06;;;10.78;100.00
5753;BME280;2901;42.140;24.760;2023-02-28T04:36:54;100206.91;;;10.70;100.00
5753;BME280;2901;42.140;24.760;2023-02-28T04:39:21;100188.81;;;10.72;100.00
5753;BME280;2901;42.140;24.760;2023-02-28T04:41:47;100193.16;;;10.76;100.00
5753;BME280;2901;42.140;24.760;2023-02-28T04:44:12;100192.28;;;10.81;100.00
5753;BME280;2901;42.140;24.760;2023-02-28T04:46:38;100189.66;;;10.71;100.00
5753;BME280;2901;42.140;24.760;2023-02-28T04:49:04;100200.06;;;10.75;100.00
5753;BME280;2901;42.140;24.760;2023-02-28T04:51:29;100200.06;;;10.84;100.00
5753;BME280;2901;42.140;24.760;2023-02-28T04:53:55;100201.78;;;10.81;100.00
5753;BME280;2901;42.140;24.760;2023-02-28T04:56:21;100193.13;;;10.73;100.00
5753;BME280;2901;42.140;24.760;2023-02-28T04:58:47;100193.13;;;10.73;100.00
5753;BME280;2901;42.140;24.760;2023-02-28T05:01:27;100205.19;;;10.71;100.00
5753;BME280;2901;42.140;24.760;2023-02-28T05:03:55;100214.69;;;10.66;100.00
5753;BME280;2901;42.140;24.760;2023-02-28T05:06:22;100225.03;;;10.63;100.00
5753;BME280;2901;42.140;24.760;2023-02-28T05:08:49;100224.97;;;10.52;100.00
5753;BME280;2901;42.140;24.760;2023-02-28T05:11:20;100232.78;;;10.61;100.00
5753;BME280;2901;42.140;24.760;2023-02-28T05:13:47;100234.47;;;10.55;100.00
5753;BME280;2901;42.140;24.760;2023-02-28T05:16:13;100233.63;;;10.53;100.00
5753;BME280;2901;42.140;24.760;2023-02-28T05:18:38;100234.50;;;10.53;100.00
5753;BME280;2901;42.140;24.760;2023-02-28T05:21:04;100234.44;;;10.46;100.00
5753;BME280;2901;42.140;24.760;2023-02-28T05:23:29;100237.84;;;10.41;100.00
5753;BME280;2901;42.140;24.760;2023-02-28T05:25:55;100235.25;;;10.37;100.00
5753;BME280;2901;42.140;24.760;2023-02-28T05:28:20;100243.81;;;10.31;100.00
5753;BME280;2901;42.140;24.760;2023-02-28T05:30:46;100245.56;;;10.29;100.00
5753;BME280;2901;42.140;24.760;2023-02-28T05:33:13;100255.06;;;10.33;100.00
5753;BME280;2901;42.140;24.760;2023-02-28T05:35:40;100261.13;;;10.34;100.00
5753;BME280;2901;42.140;24.760;2023-02-28T05:38:06;100263.72;;;10.37;100.00
5753;BME280;2901;42.140;24.760;2023-02-28T05:40:31;100264.59;;;10.36;100.00
5753;BME280;2901;42.140;24.760;2023-02-28T05:42:57;100264.56;;;10.37;100.00
5753;BME280;2901;42.140;24.760;2023-02-28T05:45:22;100273.28;;;10.49;100.00
5753;BME280;2901;42.140;24.760;2023-02-28T05:47:47;100267.28;;;10.54;100.00
5753;BME280;2901;42.140;24.760;2023-02-28T05:50:14;100270.72;;;10.50;100.00
5753;BME280;2901;42.140;24.760;2023-02-28T05:52:40;100274.09;;;10.41;100.00
5753;BME280;2901;42.140;24.760;2023-02-28T05:55:06;100271.53;;;10.43;100.00
5753;BME280;2901;42.140;24.760;2023-02-28T05:57:31;100267.25;;;10.50;100.00
5753;BME280;2901;42.140;24.760;2023-02-28T05:59:56;100277.66;;;10.56;100.00
5753;BME280;2901;42.140;24.760;2023-02-28T06:02:22;100278.53;;;10.59;100.00
5753;BME280;2901;42.140;24.760;2023-02-28T06:04:47;100288.09;;;10.71;100.00
5753;BME280;2901;42.140;24.760;2023-02-28T06:07:13;100284.66;;;10.72;100.00
5753;BME280;2901;42.140;24.760;2023-02-28T06:09:38;100287.22;;;10.66;100.00
5753;BME280;2901;42.140;24.760;2023-02-28T06:12:05;100294.19;;;10.76;100.00
5753;BME280;2901;42.140;24.760;2023-02-28T06:14:33;100290.66;;;10.68;100.00
5753;BME280;2901;42.140;24.760;2023-02-28T06:17:00;100295.00;;;10.69;100.00
5753;BME280;2901;42.140;24.760;2023-02-28T06:19:26;100302.81;;;10.78;100.00
5753;BME280;2901;42.140;24.760;2023-02-28T06:21:52;100300.13;;;10.61;100.00
5753;BME280;2901;42.140;24.760;2023-02-28T06:24:22;100303.66;;;10.74;100.00
5753;BME280;2901;42.140;24.760;2023-02-28T06:26:48;100296.81;;;10.88;100.00
5753;BME280;2901;42.140;24.760;2023-02-28T06:29:14;100284.72;;;10.87;100.00
5753;BME280;2901;42.140;24.760;2023-02-28T06:31:44;100286.47;;;10.88;100.00
5753;BME280;2901;42.140;24.760;2023-02-28T06:34:11;100292.44;;;10.78;100.00
5753;BME280;2901;42.140;24.760;2023-02-28T06:36:40;100303.75;;;10.89;100.00
5753;BME280;2901;42.140;24.760;2023-02-28T06:39:07;100297.72;;;10.93;100.00
5753;BME280;2901;42.140;24.760;2023-02-28T06:41:33;100307.25;;;11.03;100.00
5753;BME280;2901;42.140;24.760;2023-02-28T06:44:04;100298.66;;;11.10;100.00
5753;BME280;2901;42.140;24.760;2023-02-28T06:46:29;100300.38;;;11.05;100.00
5753;BME280;2901;42.140;24.760;2023-02-28T06:48:54;100296.94;;;11.06;100.00
5753;BME280;2901;42.140;24.760;2023-02-28T06:51:20;100293.44;;;11.01;100.00
5753;BME280;2901;42.140;24.760;2023-02-28T06:53:47;100297.75;;;11.04;100.00
5753;BME280;2901;42.140;24.760;2023-02-28T06:56:14;100303.84;;;11.13;100.00
5753;BME280;2901;42.140;24.760;2023-02-28T06:58:40;100303.09;;;11.35;100.00
5753;BME280;2901;42.140;24.760;2023-02-28T07:01:07;100309.09;;;11.33;100.00
5753;BME280;2901;42.140;24.760;2023-02-28T07:03:32;100312.56;;;11.36;100.00
5753;BME280;2901;42.140;24.760;2023-02-28T07:05:58;100314.28;;;11.30;100.00
5753;BME280;2901;42.140;24.760;2023-02-28T07:08:24;100317.72;;;11.27;100.00
5753;BME280;2901;42.140;24.760;2023-02-28T07:10:54;100309.97;;;11.30;100.00
5753;BME280;2901;42.140;24.760;2023-02-28T07:13:19;100316.84;;;11.27;100.00
5753;BME280;2901;42.140;24.760;2023-02-28T07:15:53;100306.56;;;11.42;100.00
5753;BME280;2901;42.140;24.760;2023-02-28T07:18:18;100315.19;;;11.47;100.00
5753;BME280;2901;42.140;24.760;2023-02-28T07:20:44;100304.84;;;11.42;100.00
5753;BME280;2901;42.140;24.760;2023-02-28T07:23:09;100315.13;;;11.27;100.00
5753;BME280;2901;42.140;24.760;2023-02-28T07:25:35;100315.97;;;11.17;100.00
5753;BME280;2901;42.140;24.760;2023-02-28T07:28:00;100332.31;;;11.07;100.00
5753;BME280;2901;42.140;24.760;2023-02-28T07:30:26;100325.38;;;11.03;100.00
5753;BME280;2901;42.140;24.760;2023-02-28T07:32:51;100338.34;;;11.00;100.00
5753;BME280;2901;42.140;24.760;2023-02-28T07:35:17;100332.19;;;10.81;100.00
5753;BME280;2901;42.140;24.760;2023-02-28T07:37:42;100334.84;;;10.92;100.00
5753;BME280;2901;42.140;24.760;2023-02-28T07:40:10;100348.53;;;10.68;100.00
5753;BME280;2901;42.140;24.760;2023-02-28T07:42:40;100341.59;;;10.67;100.00
5753;BME280;2901;42.140;24.760;2023-02-28T07:45:05;100339.00;;;10.64;100.00
5753;BME280;2901;42.140;24.760;2023-02-28T07:47:31;100337.34;;;10.75;100.00
5753;BME280;2901;42.140;24.760;2023-02-28T07:49:57;100323.53;;;10.73;100.00
5753;BME280;2901;42.140;24.760;2023-02-28T07:52:23;100321.75;;;10.68;100.00
5753;BME280;2901;42.140;24.760;2023-02-28T07:54:49;100335.72;;;10.89;100.00
5753;BME280;2901;42.140;24.760;2023-02-28T07:57:14;100334.78;;;10.80;100.00
5753;BME280;2901;42.140;24.760;2023-02-28T07:59:40;100333.03;;;10.76;100.00
5753;BME280;2901;42.140;24.760;2023-02-28T08:02:05;100334.75;;;10.72;100.00
5753;BME280;2901;42.140;24.760;2023-02-28T08:04:34;100345.16;;;10.81;100.00
5753;BME280;2901;42.140;24.760;2023-02-28T08:06:59;100339.06;;;10.75;100.00
5753;BME280;2901;42.140;24.760;2023-02-28T08:09:24;100336.38;;;10.61;100.00
5753;BME280;2901;42.140;24.760;2023-02-28T08:11:50;100341.66;;;10.73;100.00
5753;BME280;2901;42.140;24.760;2023-02-28T08:14:15;100348.53;;;10.67;100.00
5753;BME280;2901;42.140;24.760;2023-02-28T08:16:41;100350.28;;;10.74;100.00
5753;BME280;2901;42.140;24.760;2023-02-28T08:19:08;100351.25;;;10.89;100.00
5753;BME280;2901;42.140;24.760;2023-02-28T08:21:33;100346.19;;;11.14;100.00
5753;BME280;2901;42.140;24.760;2023-02-28T08:23:59;100352.25;;;11.17;100.00
5753;BME280;2901;42.140;24.760;2023-02-28T08:26:24;100331.53;;;11.19;100.00
5753;BME280;2901;42.140;24.760;2023-02-28T08:28:49;100341.97;;;11.35;100.00
5753;BME280;2901;42.140;24.760;2023-02-28T08:31:16;100340.28;;;11.42;100.00
5753;BME280;2901;42.140;24.760;2023-02-28T08:33:42;100337.69;;;11.51;100.00
5753;BME280;2901;42.140;24.760;2023-02-28T08:36:10;100334.28;;;11.58;100.00
5753;BME280;2901;42.140;24.760;2023-02-28T08:38:36;100338.63;;;11.68;100.00
5753;BME280;2901;42.140;24.760;2023-02-28T08:41:05;100339.47;;;11.66;100.00
5753;BME280;2901;42.140;24.760;2023-02-28T08:43:34;100340.34;;;11.68;100.00
5753;BME280;2901;42.140;24.760;2023-02-28T08:46:00;100338.69;;;11.83;100.00
5753;BME280;2901;42.140;24.760;2023-02-28T08:48:27;100345.59;;;11.89;99.37
5753;BME280;2901;42.140;24.760;2023-02-28T08:51:03;100347.34;;;11.85;99.22
5753;BME280;2901;42.140;24.760;2023-02-28T08:53:29;100338.66;;;11.74;99.93
5753;BME280;2901;42.140;24.760;2023-02-28T08:56:02;100348.22;;;12.06;99.63
5753;BME280;2901;42.140;24.760;2023-02-28T08:58:28;100353.44;;;12.12;98.13
5753;BME280;2901;42.140;24.760;2023-02-28T09:00:54;100353.44;;;12.18;98.08
5753;BME280;2901;42.140;24.760;2023-02-28T09:03:20;100362.09;;;12.35;97.41
5753;BME280;2901;42.140;24.760;2023-02-28T09:06:00;100352.56;;;12.11;97.40
5753;BME280;2901;42.140;24.760;2023-02-28T09:08:28;100350.81;;;11.92;97.87
5753;BME280;2901;42.140;24.760;2023-02-28T09:10:56;100341.25;;;11.73;99.12
5753;BME280;2901;42.140;24.760;2023-02-28T09:13:23;100346.38;;;11.61;99.04
5753;BME280;2901;42.140;24.760;2023-02-28T09:15:49;100359.28;;;11.38;100.00
5753;BME280;2901;42.140;24.760;2023-02-28T09:18:14;100354.03;;;11.30;100.00
5753;BME280;2901;42.140;24.760;2023-02-28T09:20:41;100344.56;;;11.34;100.00
5753;BME280;2901;42.140;24.760;2023-02-28T09:23:08;100341.06;;;11.24;100.00
5753;BME280;2901;42.140;24.760;2023-02-28T09:25:33;100345.44;;;11.36;100.00
5753;BME280;2901;42.140;24.760;2023-02-28T09:27:59;100340.25;;;11.43;100.00
5753;BME280;2901;42.140;24.760;2023-02-28T09:30:25;100336.81;;;11.48;100.00
5753;BME280;2901;42.140;24.760;2023-02-28T09:32:50;100335.09;;;11.46;100.00
5753;BME280;2901;42.140;24.760;2023-02-28T09:35:20;100325.53;;;11.36;100.00
5753;BME280;2901;42.140;24.760;2023-02-28T09:37:46;100324.66;;;11.28;100.00
5753;BME280;2901;42.140;24.760;2023-02-28T09:40:12;100329.84;;;11.28;100.00
5753;BME280;2901;42.140;24.760;2023-02-28T09:42:40;100322.91;;;11.23;100.00
5753;BME280;2901;42.140;24.760;2023-02-28T09:45:14;100325.53;;;11.32;100.00
5753;BME280;2901;42.140;24.760;2023-02-28T09:47:45;100334.16;;;11.31;100.00
5753;BME280;2901;42.140;24.760;2023-02-28T09:50:21;100337.63;;;11.31;100.00
5753;BME280;2901;42.140;24.760;2023-02-28T09:52:49;100329.88;;;11.36;100.00
5753;BME280;2901;42.140;24.760;2023-02-28T09:57:41;100325.63;;;11.58;100.00
5753;BME280;2901;42.140;24.760;2023-02-28T10:02:54;100310.91;;;11.54;100.00
5753;BME280;2901;42.140;24.760;2023-02-28T10:05:47;100283.22;;;11.36;100.00
5753;BME280;2901;42.140;24.760;2023-02-28T10:08:19;100296.25;;;11.68;100.00
5753;BME280;2901;42.140;24.760;2023-02-28T10:10:53;100301.41;;;11.54;100.00
5753;BME280;2901;42.140;24.760;2023-02-28T10:13:32;100294.44;;;11.35;100.00
5753;BME280;2901;42.140;24.760;2023-02-28T10:16:04;100304.81;;;11.39;100.00
5753;BME280;2901;42.140;24.760;2023-02-28T10:18:41;100307.38;;;11.30;100.00
5753;BME280;2901;42.140;24.760;2023-02-28T10:21:17;100299.53;;;11.14;100.00
5753;BME280;2901;42.140;24.760;2023-02-28T10:23:44;100302.09;;;11.11;100.00
5753;BME280;2901;42.140;24.760;2023-02-28T10:26:14;100293.53;;;11.22;100.00
5753;BME280;2901;42.140;24.760;2023-02-28T10:28:41;100291.78;;;11.24;100.00
5753;BME280;2901;42.140;24.760;2023-02-28T10:31:15;100289.16;;;11.06;100.00
5753;BME280;2901;42.140;24.760;2023-02-28T10:33:42;100291.75;;;11.17;100.00
5753;BME280;2901;42.140;24.760;2023-02-28T10:36:14;100278.81;;;11.12;100.00
5753;BME280;2901;42.140;24.760;2023-02-28T10:38:41;100283.09;;;11.10;100.00
5753;BME280;2901;42.140;24.760;2023-02-28T10:41:30;100285.75;;;11.22;100.00
5753;BME280;2901;42.140;24.760;2023-02-28T10:44:23;100283.09;;;11.13;100.00
5753;BME280;2901;42.140;24.760;2023-02-28T10:46:49;100290.88;;;11.09;100.00
5753;BME280;2901;42.140;24.760;2023-02-28T10:49:26;100286.63;;;11.27;100.00
5753;BME280;2901;42.140;24.760;2023-02-28T10:51:59;100278.84;;;11.36;100.00
5753;BME280;2901;42.140;24.760;2023-02-28T10:54:31;100274.56;;;11.43;100.00
5753;BME280;2901;42.140;24.760;2023-02-28T10:57:28;100278.03;;;11.50;100.00
5753;BME280;2901;42.140;24.760;2023-02-28T11:00:16;100272.00;;;11.52;100.00
5753;BME280;2901;42.140;24.760;2023-02-28T11:02:42;100278.03;;;11.50;100.00
5753;BME280;2901;42.140;24.760;2023-02-28T11:05:31;100264.19;;;11.32;100.00
5753;BME280;2901;42.140;24.760;2023-02-28T11:08:12;100264.19;;;11.32;100.00
5753;BME280;2901;42.140;24.760;2023-02-28T11:10:39;100271.09;;;11.36;100.00
5753;BME280;2901;42.140;24.760;2023-02-28T11:13:05;100269.38;;;11.44;100.00
5753;BME280;2901;42.140;24.760;2023-02-28T11:15:33;100263.31;;;11.32;100.00
5753;BME280;2901;42.140;24.760;2023-02-28T11:18:21;100258.06;;;11.14;100.00
5753;BME280;2901;42.140;24.760;2023-02-28T11:20:50;100254.63;;;11.15;100.00
5753;BME280;2901;42.140;24.760;2023-02-28T11:23:17;100261.44;;;10.94;100.00
5753;BME280;2901;42.140;24.760;2023-02-28T11:25:50;100261.41;;;10.85;100.00
5753;BME280;2901;42.140;24.760;2023-02-28T11:28:29;100257.03;;;10.74;100.00
5753;BME280;2901;42.140;24.760;2023-02-28T11:31:16;100263.06;;;10.74;100.00
5753;BME280;2901;42.140;24.760;2023-02-28T11:33:47;100262.28;;;10.86;100.00
5753;BME280;2901;42.140;24.760;2023-02-28T11:36:27;100257.91;;;10.76;100.00
5753;BME280;2901;42.140;24.760;2023-02-28T11:38:56;100263.94;;;10.73;100.00
5753;BME280;2901;42.140;24.760;2023-02-28T11:44:08;100254.50;;;10.90;100.00
5753;BME280;2901;42.140;24.760;2023-02-28T11:46:49;100247.59;;;10.86;100.00
5753;BME280;2901;42.140;24.760;2023-02-28T11:52:01;100254.53;;;10.89;100.00
5753;BME280;2901;42.140;24.760;2023-02-28T11:54:48;100255.34;;;10.85;100.00
5753;BME280;2901;42.140;24.760;2023-02-28T11:57:35;100251.84;;;10.75;100.00
5753;BME280;2901;42.140;24.760;2023-02-28T12:05:44;100257.00;;;10.66;100.00
5753;BME280;2901;42.140;24.760;2023-02-28T12:11:09;100238.00;;;10.66;100.00
5753;BME280;2901;42.140;24.760;2023-02-28T12:13:48;100238.00;;;10.69;100.00
5753;BME280;2901;42.140;24.760;2023-02-28T12:19:03;100238.00;;;10.66;100.00
5753;BME280;2901;42.140;24.760;2023-02-28T12:26:46;100244.16;;;10.89;100.00
5753;BME280;2901;42.140;24.760;2023-02-28T12:29:32;100239.81;;;10.85;100.00
5753;BME280;2901;42.140;24.760;2023-02-28T12:32:19;100233.78;;;10.86;100.00
5753;BME280;2901;42.140;24.760;2023-02-28T12:35:03;100238.06;;;10.81;100.00
5753;BME280;2901;42.140;24.760;2023-02-28T12:37:36;100237.19;;;10.77;100.00
5753;BME280;2901;42.140;24.760;2023-02-28T12:40:12;100231.13;;;10.74;100.00
5753;BME280;2901;42.140;24.760;2023-02-28T12:42:42;100231.13;;;10.75;100.00
5753;BME280;2901;42.140;24.760;2023-02-28T12:47:38;100209.59;;;10.87;100.00
5753;BME280;2901;42.140;24.760;2023-02-28T12:50:09;100219.94;;;10.90;100.00
5753;BME280;2901;42.140;24.760;2023-02-28T12:55:23;100223.41;;;10.86;100.00
5753;BME280;2901;42.140;24.760;2023-02-28T12:58:05;100221.63;;;10.70;100.00
5753;BME280;2901;42.140;24.760;2023-02-28T13:00:58;100227.63;;;10.66;100.00
5753;BME280;2901;42.140;24.760;2023-02-28T13:09:19;100218.13;;;10.63;100.00
5753;BME280;2901;42.140;24.760;2023-02-28T13:11:51;100211.25;;;10.70;100.00
5753;BME280;2901;42.140;24.760;2023-02-28T13:14:35;100220.66;;;10.54;100.00
5753;BME280;2901;42.140;24.760;2023-02-28T13:24:54;100213.78;;;10.61;100.00
5753;BME280;2901;42.140;24.760;2023-02-28T13:27:24;100221.53;;;10.53;100.00
5753;BME280;2901;42.140;24.760;2023-02-28T13:29:52;100217.97;;;10.36;100.00
5753;BME280;2901;42.140;24.760;2023-02-28T13:32:34;100214.53;;;10.37;100.00
5753;BME280;2901;42.140;24.760;2023-02-28T13:37:34;100217.03;;;10.25;100.00
5753;BME280;2901;42.140;24.760;2023-02-28T13:47:52;100220.53;;;10.27;100.00
5753;BME280;2901;42.140;24.760;2023-02-28T13:58:32;100210.28;;;10.48;100.00
5753;BME280;2901;42.140;24.760;2023-02-28T14:03:59;100208.53;;;10.43;100.00
5753;BME280;2901;42.140;24.760;2023-02-28T14:06:31;100210.25;;;10.40;100.00
5753;BME280;2901;42.140;24.760;2023-02-28T14:11:45;100215.47;;;10.47;100.00
5753;BME280;2901;42.140;24.760;2023-02-28T14:16:58;100218.03;;;10.44;100.00
5753;BME280;2901;42.140;24.760;2023-02-28T14:19:31;100214.56;;;10.43;100.00
5753;BME280;2901;42.140;24.760;2023-02-28T14:30:29;100220.72;;;10.68;100.00
5753;BME280;2901;42.140;24.760;2023-02-28T14:36:17;100226.81;;;10.74;100.00
5753;BME280;2901;42.140;24.760;2023-02-28T14:38:47;100232.84;;;10.75;100.00
5753;BME280;2901;42.140;24.760;2023-02-28T14:41:31;100223.34;;;10.74;100.00
5753;BME280;2901;42.140;24.760;2023-02-28T14:44:02;100216.44;;;10.70;100.00
5753;BME280;2901;42.140;24.760;2023-02-28T14:46:39;100216.38;;;10.64;100.00
5753;BME280;2901;42.140;24.760;2023-02-28T14:49:07;100220.75;;;10.71;100.00
5753;BME280;2901;42.140;24.760;2023-02-28T14:51:37;100221.59;;;10.68;100.00
5753;BME280;2901;42.140;24.760;2023-02-28T14:54:03;100217.31;;;10.72;100.00
5753;BME280;2901;42.140;24.760;2023-02-28T14:56:37;100224.22;;;10.76;100.00
5753;BME280;2901;42.140;24.760;2023-02-28T14:59:03;100238.06;;;10.81;100.00
5753;BME280;2901;42.140;24.760;2023-02-28T15:01:29;100233.75;;;10.81;100.00
5753;BME280;2901;42.140;24.760;2023-02-28T15:04:03;100233.78;;;10.83;100.00
5753;BME280;2901;42.140;24.760;2023-02-28T15:06:29;100235.47;;;10.81;100.00
5753;BME280;2901;42.140;24.760;2023-02-28T15:09:10;100238.00;;;10.69;100.00
5753;BME280;2901;42.140;24.760;2023-02-28T15:11:37;100244.06;;;10.66;100.00
5753;BME280;2901;42.140;24.760;2023-02-28T15:14:04;100247.50;;;10.67;100.00